Time;durP1;ratioP1;P1;durP2;ratioP2;P2;SDS_P1;SDS_P2;PMS_P1;PMS_P2;Temp;Humidity;BMP_temperature;BMP_pressure;BME280_temperature;BME280_humidity;BME280_pressure;Samples;Min_cycle;Max_cycle;Signal;HPM_P1;HPM_P2
2022/05/02 00:02:15;;;;;;;;;18.00;15.75;;;;;;;;5052463;28;45501;-73
2022/05/02 00:04:40;;;;;;;;;15.75;15.75;;;;;;;;5057992;28;45362;-73
2022/05/02 00:07:06;;;;;;;;;14.00;12.50;;;;;;;;5052766;28;45495;-73
2022/05/02 00:09:31;;;;;;;;;14.50;14.00;;;;;;;;5054425;28;46156;-73
2022/05/02 00:11:58;;;;;;;;;13.75;13.00;;;;;;;;5052358;28;45336;-73
2022/05/02 00:14:23;;;;;;;;;18.25;17.25;;;;;;;;5053800;28;45205;-73
2022/05/02 00:16:48;;;;;;;;;17.00;15.00;;;;;;;;5054101;28;45237;-72
2022/05/02 00:19:14;;;;;;;;;17.00;14.25;;;;;;;;5057333;28;48341;-73
2022/05/02 00:21:39;;;;;;;;;16.25;14.25;;;;;;;;5050333;28;45671;-73
2022/05/02 00:24:04;;;;;;;;;17.00;15.00;;;;;;;;5053135;28;45273;-73
2022/05/02 00:26:29;;;;;;;;;13.75;11.25;;;;;;;;5056464;28;45198;-72
2022/05/02 00:28:54;;;;;;;;;16.00;15.00;;;;;;;;5058473;28;45328;-72
2022/05/02 00:31:20;;;;;;;;;12.50;10.25;;;;;;;;5051926;28;46972;-72
2022/05/02 00:33:45;;;;;;;;;15.50;14.50;;;;;;;;5047955;28;45268;-72
2022/05/02 00:36:10;;;;;;;;;14.00;14.00;;;;;;;;5047877;28;45534;-72
2022/05/02 00:38:35;;;;;;;;;17.75;15.75;;;;;;;;5058701;28;46123;-72
2022/05/02 00:41:01;;;;;;;;;15.50;13.00;;;;;;;;5053417;28;45376;-72
2022/05/02 00:43:26;;;;;;;;;17.25;15.50;;;;;;;;5057932;28;45332;-72
2022/05/02 00:45:51;;;;;;;;;19.75;17.50;;;;;;;;5054758;28;45287;-72
2022/05/02 00:48:16;;;;;;;;;17.00;14.00;;;;;;;;5055961;28;45402;-72
2022/05/02 00:50:44;;;;;;;;;18.25;14.50;;;;;;;;5055773;28;45408;-72
2022/05/02 00:53:13;;;;;;;;;18.00;16.75;;;;;;;;5055378;28;45322;-73
2022/05/02 00:55:38;;;;;;;;;19.00;17.50;;;;;;;;5056371;28;45605;-73
2022/05/02 00:58:04;;;;;;;;;19.25;18.25;;;;;;;;5055616;28;45638;-72
2022/05/02 01:00:31;;;;;;;;;14.50;13.50;;;;;;;;5056531;28;45311;-73
2022/05/02 01:02:56;;;;;;;;;19.00;16.00;;;;;;;;5053978;28;45360;-73
2022/05/02 01:05:22;;;;;;;;;16.50;15.75;;;;;;;;5056102;28;45290;-73
2022/05/02 01:07:47;;;;;;;;;18.25;15.50;;;;;;;;5053762;28;45434;-73
2022/05/02 01:10:17;;;;;;;;;24.00;16.00;;;;;;;;5056960;28;45935;-73
2022/05/02 01:12:42;;;;;;;;;21.50;17.00;;;;;;;;5052791;28;45453;-74
2022/05/02 01:15:08;;;;;;;;;21.75;18.75;;;;;;;;5060075;28;46133;-73
2022/05/02 01:17:34;;;;;;;;;20.25;16.75;;;;;;;;5054777;28;45312;-73
2022/05/02 01:19:59;;;;;;;;;22.25;20.00;;;;;;;;5062316;28;45383;-73
2022/05/02 01:22:24;;;;;;;;;22.25;18.00;;;;;;;;5057240;28;45348;-73
2022/05/02 01:24:49;;;;;;;;;21.50;18.75;;;;;;;;5062075;28;45355;-73
2022/05/02 01:27:15;;;;;;;;;19.75;18.25;;;;;;;;5054822;28;47254;-73
2022/05/02 01:29:42;;;;;;;;;18.50;18.50;;;;;;;;5048534;28;45297;-73
2022/05/02 01:32:09;;;;;;;;;22.25;17.50;;;;;;;;5051632;28;45422;-73
2022/05/02 01:34:35;;;;;;;;;15.00;14.00;;;;;;;;5059973;28;46066;-73
2022/05/02 01:37:01;;;;;;;;;15.50;15.50;;;;;;;;5050599;28;46783;-73
2022/05/02 01:39:27;;;;;;;;;20.00;17.00;;;;;;;;5061441;28;45597;-73
2022/05/02 01:41:52;;;;;;;;;18.75;16.50;;;;;;;;5052892;28;45257;-73
2022/05/02 01:44:17;;;;;;;;;20.50;19.50;;;;;;;;5061572;28;45319;-73
2022/05/02 01:46:43;;;;;;;;;17.50;17.00;;;;;;;;5054506;28;45252;-73
2022/05/02 01:49:09;;;;;;;;;20.50;16.75;;;;;;;;5061433;28;45173;-73
2022/05/02 01:51:34;;;;;;;;;22.75;19.50;;;;;;;;5054828;28;45395;-73
2022/05/02 01:53:59;;;;;;;;;18.00;17.75;;;;;;;;5061430;28;45283;-72
2022/05/02 01:56:25;;;;;;;;;23.25;19.50;;;;;;;;5054677;28;45284;-72
2022/05/02 01:58:50;;;;;;;;;17.75;17.75;;;;;;;;5061445;28;45354;-72
2022/05/02 02:01:15;;;;;;;;;22.00;20.00;;;;;;;;5053405;28;45557;-72
2022/05/02 02:03:41;;;;;;;;;16.75;16.75;;;;;;;;5058568;28;45580;-73
2022/05/02 02:06:06;;;;;;;;;21.25;19.75;;;;;;;;5047788;28;46063;-73
2022/05/02 02:08:32;;;;;;;;;19.50;17.50;;;;;;;;5060540;28;45260;-73
2022/05/02 02:10:59;;;;;;;;;18.00;16.50;;;;;;;;5057834;28;45431;-73
2022/05/02 02:13:24;;;;;;;;;17.25;16.75;;;;;;;;5057071;28;45371;-73
2022/05/02 02:15:50;;;;;;;;;18.00;14.75;;;;;;;;5057139;28;45450;-74
2022/05/02 02:18:15;;;;;;;;;19.75;15.50;;;;;;;;5056979;28;45261;-73
2022/05/02 02:20:44;;;;;;;;;19.50;17.50;;;;;;;;5058686;28;45503;-73
2022/05/02 02:23:10;;;;;;;;;18.50;15.00;;;;;;;;5057078;28;45446;-73
2022/05/02 02:25:36;;;;;;;;;20.00;19.50;;;;;;;;5056748;28;47149;-74
2022/05/02 02:28:02;;;;;;;;;21.25;19.25;;;;;;;;5059599;28;45364;-73
2022/05/02 02:30:29;;;;;;;;;21.00;21.00;;;;;;;;5058883;28;45538;-73
2022/05/02 02:32:55;;;;;;;;;19.75;18.75;;;;;;;;5052098;28;45377;-73
2022/05/02 02:35:20;;;;;;;;;21.25;19.00;;;;;;;;5058886;28;45510;-73
2022/05/02 02:37:46;;;;;;;;;20.75;19.25;;;;;;;;5060642;28;45704;-73
2022/05/02 02:40:12;;;;;;;;;17.00;15.50;;;;;;;;5053071;28;45294;-73
2022/05/02 02:42:38;;;;;;;;;20.50;17.25;;;;;;;;5052092;28;45475;-73
2022/05/02 02:45:03;;;;;;;;;22.50;18.75;;;;;;;;5060578;28;45412;-73
2022/05/02 02:47:29;;;;;;;;;23.50;22.25;;;;;;;;5053576;28;45165;-73
2022/05/02 02:49:54;;;;;;;;;22.75;21.00;;;;;;;;5060658;28;45407;-72
2022/05/02 02:52:19;;;;;;;;;20.25;20.25;;;;;;;;5053626;28;45270;-73
2022/05/02 02:54:45;;;;;;;;;25.50;21.75;;;;;;;;5060481;28;46100;-73
2022/05/02 02:57:10;;;;;;;;;23.50;23.50;;;;;;;;5052654;28;45908;-73
2022/05/02 02:59:35;;;;;;;;;21.25;17.00;;;;;;;;5060563;28;45480;-73
2022/05/02 03:02:00;;;;;;;;;29.50;25.25;;;;;;;;5052164;28;45989;-73
2022/05/02 03:07:12;;;;;;;;;24.50;23.25;;;;;;;;5053756;28;45372;-73
2022/05/02 03:09:37;;;;;;;;;31.50;24.50;;;;;;;;5060176;28;45247;-73
2022/05/02 03:12:03;;;;;;;;;28.25;24.50;;;;;;;;5054570;28;45315;-73
2022/05/02 03:14:28;;;;;;;;;25.75;23.50;;;;;;;;5058615;28;47199;-73
2022/05/02 03:16:53;;;;;;;;;28.75;22.25;;;;;;;;5050792;28;45418;-73
2022/05/02 03:19:18;;;;;;;;;28.00;23.75;;;;;;;;5054415;28;45564;-73
2022/05/02 03:21:44;;;;;;;;;33.75;24.50;;;;;;;;5056276;28;45344;-73
2022/05/02 03:24:09;;;;;;;;;25.75;25.25;;;;;;;;5058453;28;45361;-73
2022/05/02 03:26:34;;;;;;;;;29.25;25.25;;;;;;;;5057801;28;45489;-73
2022/05/02 03:28:59;;;;;;;;;25.75;24.00;;;;;;;;5059713;28;45303;-73
2022/05/02 03:31:24;;;;;;;;;25.50;25.25;;;;;;;;5055744;28;45512;-73
2022/05/02 03:33:50;;;;;;;;;29.00;26.00;;;;;;;;5053470;28;46113;-73
2022/05/02 03:36:15;;;;;;;;;21.25;21.00;;;;;;;;5053817;28;45407;-73
2022/05/02 03:38:40;;;;;;;;;25.00;22.75;;;;;;;;5059791;28;45414;-73
2022/05/02 03:41:05;;;;;;;;;25.75;23.00;;;;;;;;5056602;28;45508;-72
2022/05/02 03:43:32;;;;;;;;;29.00;25.50;;;;;;;;5057855;28;47469;-72
2022/05/02 03:45:57;;;;;;;;;25.00;23.75;;;;;;;;5055221;28;45542;-72
2022/05/02 03:48:22;;;;;;;;;26.50;25.50;;;;;;;;5056843;28;45475;-72
2022/05/02 03:50:47;;;;;;;;;26.50;23.25;;;;;;;;5056524;28;45342;-72
2022/05/02 03:53:15;;;;;;;;;22.50;22.50;;;;;;;;5055793;28;45389;-72
2022/05/02 03:55:42;;;;;;;;;29.50;25.00;;;;;;;;5056526;28;45268;-73
2022/05/02 03:58:08;;;;;;;;;23.00;23.00;;;;;;;;5055371;28;45267;-72
2022/05/02 04:00:33;;;;;;;;;26.25;24.00;;;;;;;;5057397;28;45517;-72
2022/05/02 04:02:58;;;;;;;;;32.50;31.25;;;;;;;;5054166;28;46260;-72
2022/05/02 04:05:23;;;;;;;;;23.00;21.75;;;;;;;;5057807;28;46497;-73
2022/05/02 04:07:49;;;;;;;;;32.50;26.75;;;;;;;;5066317;28;45384;-72
2022/05/02 04:10:14;;;;;;;;;23.00;21.25;;;;;;;;5058410;28;47127;-73
2022/05/02 04:12:39;;;;;;;;;26.00;22.25;;;;;;;;5051714;28;46102;-73
2022/05/02 04:15:06;;;;;;;;;25.75;21.00;;;;;;;;5059344;28;45316;-72
2022/05/02 04:17:31;;;;;;;;;23.25;21.75;;;;;;;;5050581;28;45347;-72
2022/05/02 04:19:56;;;;;;;;;22.50;20.00;;;;;;;;5059036;28;45577;-72
2022/05/02 04:22:21;;;;;;;;;31.50;25.75;;;;;;;;5050707;28;47322;-73
2022/05/02 04:24:46;;;;;;;;;27.00;24.75;;;;;;;;5058909;28;45319;-73
2022/05/02 04:27:12;;;;;;;;;26.50;21.50;;;;;;;;5047656;28;45436;-72
2022/05/02 04:29:37;;;;;;;;;25.50;21.25;;;;;;;;5058886;28;45336;-72
2022/05/02 04:32:02;;;;;;;;;23.25;20.50;;;;;;;;5049326;28;47043;-73
2022/05/02 04:34:28;;;;;;;;;24.50;21.50;;;;;;;;5058646;28;45339;-73
2022/05/02 04:36:53;;;;;;;;;24.00;20.75;;;;;;;;5053772;28;45642;-73
2022/05/02 04:39:18;;;;;;;;;20.00;18.50;;;;;;;;5058647;28;45560;-73
2022/05/02 04:41:43;;;;;;;;;28.25;24.50;;;;;;;;5050013;28;48267;-73
2022/05/02 04:44:08;;;;;;;;;22.75;20.75;;;;;;;;5057727;28;45228;-73
2022/05/02 04:46:34;;;;;;;;;23.25;21.25;;;;;;;;5053760;28;45621;-73
2022/05/02 04:48:59;;;;;;;;;26.50;23.75;;;;;;;;5061038;28;45319;-73
2022/05/02 04:51:24;;;;;;;;;25.00;22.75;;;;;;;;5055657;28;45356;-73
2022/05/02 04:53:50;;;;;;;;;28.50;23.00;;;;;;;;5062226;28;45525;-72
2022/05/02 04:56:15;;;;;;;;;28.50;25.00;;;;;;;;5056465;28;45365;-72
2022/05/02 04:58:40;;;;;;;;;28.00;23.25;;;;;;;;5062004;28;45174;-72
2022/05/02 05:01:06;;;;;;;;;24.25;16.75;;;;;;;;5057095;28;48416;-73
2022/05/02 05:03:31;;;;;;;;;23.25;19.50;;;;;;;;5060326;28;45401;-74
2022/05/02 05:05:57;;;;;;;;;29.50;26.50;;;;;;;;5057964;28;45535;-73
2022/05/02 05:08:22;;;;;;;;;29.00;23.50;;;;;;;;5055577;28;45235;-73
2022/05/02 05:10:52;;;;;;;;;27.00;24.25;;;;;;;;5059176;28;45422;-73
2022/05/02 05:13:18;;;;;;;;;28.75;24.00;;;;;;;;5057389;28;45395;-73
2022/05/02 05:18:43;;;;;;;;;34.50;29.00;;;;;;;;5050374;28;45320;-73
2022/05/02 05:21:14;;;;;;;;;31.50;28.00;;;;;;;;5059061;28;46261;-74
2022/05/02 05:23:45;;;;;;;;;29.75;27.75;;;;;;;;5074911;27;45323;-73
2022/05/02 05:26:13;;;;;;;;;34.00;28.75;;;;;;;;5056271;28;46831;-74
2022/05/02 05:28:38;;;;;;;;;36.50;33.00;;;;;;;;5060726;28;46408;-73
2022/05/02 05:31:12;;;;;;;;;37.50;33.25;;;;;;;;5059180;28;45561;-73
2022/05/02 05:33:53;;;;;;;;;38.50;31.75;;;;;;;;5053901;28;45363;-73
2022/05/02 05:36:21;;;;;;;;;36.50;31.50;;;;;;;;5056001;28;45347;-73
2022/05/02 05:38:54;;;;;;;;;34.50;28.75;;;;;;;;5061288;28;45359;-73
2022/05/02 05:41:22;;;;;;;;;32.75;30.00;;;;;;;;5057608;28;46632;-73
2022/05/02 05:44:07;;;;;;;;;37.75;32.75;;;;;;;;5055176;28;45835;-73
2022/05/02 05:46:40;;;;;;;;;40.00;34.50;;;;;;;;5033086;28;45464;-73
2022/05/02 05:49:13;;;;;;;;;41.00;36.25;;;;;;;;5058333;28;45511;-74
2022/05/02 05:51:38;;;;;;;;;35.25;29.00;;;;;;;;5054584;28;45474;-74
2022/05/02 05:54:12;;;;;;;;;38.25;33.25;;;;;;;;5061053;28;45516;-74
2022/05/02 05:56:38;;;;;;;;;39.75;33.75;;;;;;;;5055239;28;45403;-74
2022/05/02 05:59:05;;;;;;;;;41.00;34.25;;;;;;;;5061199;28;45317;-74
2022/05/02 06:01:47;;;;;;;;;39.00;34.50;;;;;;;;5057445;28;45458;-76
2022/05/02 06:04:14;;;;;;;;;36.75;32.75;;;;;;;;5061152;28;45545;-76
2022/05/02 06:06:39;;;;;;;;;41.00;35.25;;;;;;;;5054975;28;45343;-75
2022/05/02 06:09:05;;;;;;;;;34.25;32.50;;;;;;;;5057055;28;45355;-75
2022/05/02 06:11:33;;;;;;;;;34.75;33.50;;;;;;;;5052609;28;48182;-76
2022/05/02 06:13:59;;;;;;;;;39.25;33.75;;;;;;;;5059703;28;45350;-76
2022/05/02 06:19:13;;;;;;;;;42.25;34.75;;;;;;;;5059137;28;45214;-76
2022/05/02 06:21:45;;;;;;;;;35.25;32.00;;;;;;;;5058243;28;45719;-76
2022/05/02 06:24:11;;;;;;;;;44.75;37.75;;;;;;;;5060286;28;45297;-76
2022/05/02 06:26:37;;;;;;;;;37.25;33.75;;;;;;;;5056040;28;45427;-75
2022/05/02 06:29:03;;;;;;;;;41.50;36.00;;;;;;;;5055165;28;45264;-76
2022/05/02 06:31:29;;;;;;;;;42.00;34.50;;;;;;;;5055425;28;47298;-75
2022/05/02 06:33:56;;;;;;;;;36.00;31.25;;;;;;;;5060090;28;45386;-75
2022/05/02 06:36:33;;;;;;;;;41.50;35.00;;;;;;;;5054711;28;45303;-76
2022/05/02 06:39:02;;;;;;;;;41.25;37.00;;;;;;;;5058979;28;46221;-75
2022/05/02 06:41:38;;;;;;;;;45.25;36.25;;;;;;;;5053884;28;46351;-76
2022/05/02 06:44:21;;;;;;;;;44.00;36.00;;;;;;;;5059144;28;45326;-75
2022/05/02 06:47:07;;;;;;;;;44.75;38.00;;;;;;;;5057404;28;45420;-76
2022/05/02 06:49:33;;;;;;;;;39.50;34.50;;;;;;;;5049454;28;45484;-77
2022/05/02 06:52:01;;;;;;;;;37.75;34.75;;;;;;;;5078943;27;47311;-76
2022/05/02 06:54:43;;;;;;;;;48.25;39.50;;;;;;;;5055236;28;45414;-78
2022/05/02 06:57:14;;;;;;;;;44.25;37.50;;;;;;;;5080012;27;45488;-77
2022/05/02 06:59:40;;;;;;;;;44.75;36.00;;;;;;;;5059599;28;45526;-78
2022/05/02 07:02:05;;;;;;;;;42.75;36.00;;;;;;;;5055764;28;47998;-78
2022/05/02 07:04:49;;;;;;;;;37.50;34.00;;;;;;;;5057755;28;45434;-77
2022/05/02 07:07:14;;;;;;;;;42.00;37.25;;;;;;;;5056380;28;45563;-76
2022/05/02 07:09:40;;;;;;;;;41.75;34.75;;;;;;;;5058621;28;45577;-77
2022/05/02 07:12:11;;;;;;;;;43.25;34.50;;;;;;;;5056976;28;45446;-76
2022/05/02 07:14:55;;;;;;;;;41.50;36.50;;;;;;;;5059020;28;44718;-76
2022/05/02 07:17:39;;;;;;;;;48.25;37.25;;;;;;;;5056217;28;45426;-76
2022/05/02 07:20:05;;;;;;;;;35.25;33.50;;;;;;;;5059493;28;45318;-75
2022/05/02 07:22:43;;;;;;;;;46.25;34.00;;;;;;;;5053182;28;47504;-75
2022/05/02 07:25:08;;;;;;;;;40.50;32.50;;;;;;;;5057609;28;45516;-76
2022/05/02 07:27:55;;;;;;;;;32.00;30.75;;;;;;;;5053560;28;45287;-75
2022/05/02 07:30:21;;;;;;;;;39.25;34.25;;;;;;;;5054764;28;45436;-76
2022/05/02 07:32:46;;;;;;;;;35.50;33.25;;;;;;;;5066197;28;46257;-76
2022/05/02 07:35:13;;;;;;;;;38.25;34.25;;;;;;;;5039737;28;45251;-76
2022/05/02 07:37:41;;;;;;;;;41.50;34.50;;;;;;;;5057848;28;45313;-78
2022/05/02 07:40:07;;;;;;;;;42.00;34.00;;;;;;;;5058724;28;45512;-77
2022/05/02 07:42:33;;;;;;;;;40.50;33.75;;;;;;;;5056596;28;45437;-77
2022/05/02 07:44:59;;;;;;;;;34.00;30.00;;;;;;;;5058817;28;45346;-77
2022/05/02 07:47:27;;;;;;;;;34.25;30.00;;;;;;;;5056216;28;45348;-76
2022/05/02 07:49:54;;;;;;;;;40.50;33.50;;;;;;;;5057265;28;46170;-75
2022/05/02 07:52:21;;;;;;;;;43.50;35.75;;;;;;;;5055437;28;45945;-77
2022/05/02 07:54:47;;;;;;;;;39.25;34.75;;;;;;;;5054778;28;45456;-76
2022/05/02 07:57:14;;;;;;;;;41.00;35.00;;;;;;;;5057425;28;45469;-76
2022/05/02 07:59:40;;;;;;;;;41.25;35.50;;;;;;;;5058849;28;45465;-76
2022/05/02 08:02:06;;;;;;;;;40.00;33.25;;;;;;;;5052069;28;45256;-75
2022/05/02 08:04:31;;;;;;;;;42.75;34.75;;;;;;;;5058761;28;46125;-76
2022/05/02 08:07:07;;;;;;;;;43.25;36.50;;;;;;;;5048484;28;45469;-76
2022/05/02 08:09:52;;;;;;;;;46.00;36.00;;;;;;;;5053071;28;45357;-76
2022/05/02 08:12:20;;;;;;;;;42.00;35.25;;;;;;;;5053682;28;46333;-76
2022/05/02 08:15:07;;;;;;;;;45.00;36.00;;;;;;;;5055623;28;45410;-77
2022/05/02 08:17:35;;;;;;;;;50.00;38.50;;;;;;;;5054314;28;45514;-76
2022/05/02 08:20:06;;;;;;;;;44.25;36.00;;;;;;;;5058641;28;45165;-78
2022/05/02 08:29:10;;;;;;;;;41.75;36.25;;;;;;;;5048830;28;45450;-75
2022/05/02 08:31:38;;;;;;;;;34.00;30.50;;;;;;;;5035333;28;45520;-75
2022/05/02 08:34:12;;;;;;;;;47.00;36.25;;;;;;;;5053180;28;45401;-74
2022/05/02 08:36:51;;;;;;;;;44.00;37.00;;;;;;;;5051897;28;45417;-75
2022/05/02 08:39:20;;;;;;;;;48.00;37.75;;;;;;;;5057092;28;45287;-75
2022/05/02 08:42:03;;;;;;;;;39.75;33.75;;;;;;;;5051604;28;45308;-75
2022/05/02 08:44:47;;;;;;;;;45.25;36.75;;;;;;;;5056261;28;48197;-75
2022/05/02 08:47:12;;;;;;;;;47.00;36.50;;;;;;;;5050831;28;45421;-76
2022/05/02 08:49:52;;;;;;;;;43.50;36.75;;;;;;;;5057530;28;45938;-75
2022/05/02 08:52:35;;;;;;;;;43.50;35.25;;;;;;;;5051557;28;45558;-75
2022/05/02 08:55:20;;;;;;;;;46.50;37.00;;;;;;;;5052780;28;45845;-76
2022/05/02 08:58:04;;;;;;;;;40.50;35.00;;;;;;;;5049353;28;45367;-79
2022/05/02 09:00:46;;;;;;;;;43.75;34.50;;;;;;;;5055975;28;45398;-74
2022/05/02 09:03:31;;;;;;;;;47.25;39.00;;;;;;;;5056319;28;47001;-75
2022/05/02 09:05:58;;;;;;;;;42.25;35.75;;;;;;;;5054676;28;45384;-72
2022/05/02 09:08:26;;;;;;;;;41.25;34.00;;;;;;;;5055966;28;45380;-72
2022/05/02 09:10:57;;;;;;;;;46.25;37.00;;;;;;;;5053683;28;45281;-72
2022/05/02 09:13:35;;;;;;;;;44.75;37.00;;;;;;;;5056125;28;45489;-72
2022/05/02 09:16:00;;;;;;;;;45.75;37.50;;;;;;;;5051920;28;47887;-72
2022/05/02 09:18:44;;;;;;;;;40.50;33.25;;;;;;;;5056827;28;45549;-72
2022/05/02 09:21:09;;;;;;;;;42.75;34.25;;;;;;;;5054616;28;45305;-72
2022/05/02 09:23:57;;;;;;;;;41.67;35.67;;;;;;;;5054563;28;45384;-72
2022/05/02 09:26:41;;;;;;;;;38.00;34.33;;;;;;;;5033953;28;46581;-72
2022/05/02 09:29:20;;;;;;;;;44.33;37.00;;;;;;;;5052871;28;46478;-72
2022/05/02 09:31:58;;;;;;;;;41.67;35.00;;;;;;;;5052109;28;45397;-72
2022/05/02 09:34:33;;;;;;;;;41.00;36.67;;;;;;;;5059625;28;45213;-72
2022/05/02 09:37:04;;;;;;;;;45.00;36.33;;;;;;;;5048908;28;48309;-72
2022/05/02 09:39:33;;;;;;;;;41.00;35.67;;;;;;;;5059724;28;45311;-72
2022/05/02 09:42:01;;;;;;;;;47.00;36.00;;;;;;;;5054795;28;45182;-72
2022/05/02 09:50:11;;;;;;;;;37.33;32.33;;;;;;;;5055554;28;45428;-73
2022/05/02 09:52:39;;;;;;;;;43.33;36.33;;;;;;;;5056887;28;45315;-72
2022/05/02 09:58:00;;;;;;;;;43.33;37.00;;;;;;;;5057828;28;45311;-73
2022/05/02 10:03:22;;;;;;;;;39.33;34.00;;;;;;;;5055935;28;45449;-73
2022/05/02 10:06:06;;;;;;;;;43.00;33.33;;;;;;;;5058763;28;45476;-71
2022/05/02 10:08:37;;;;;;;;;44.00;35.67;;;;;;;;5056451;28;46128;-75
2022/05/02 10:11:12;;;;;;;;;37.00;33.00;;;;;;;;5053944;28;45270;-74
2022/05/02 10:13:47;;;;;;;;;42.00;35.33;;;;;;;;5051128;28;45400;-74
2022/05/02 10:16:30;;;;;;;;;42.33;36.33;;;;;;;;5056960;28;45501;-75
2022/05/02 10:19:09;;;;;;;;;41.67;34.00;;;;;;;;5052955;28;46172;-72
2022/05/02 10:22:01;;;;;;;;;41.33;35.33;;;;;;;;5058050;28;45454;-73
2022/05/02 10:24:44;;;;;;;;;35.67;33.33;;;;;;;;5042371;28;45225;-73
2022/05/02 10:27:15;;;;;;;;;38.00;33.00;;;;;;;;5051516;28;45717;-73
2022/05/02 10:29:46;;;;;;;;;37.67;32.67;;;;;;;;5060043;28;45391;-72
2022/05/02 10:32:23;;;;;;;;;36.33;32.00;;;;;;;;5051490;28;45312;-73
2022/05/02 10:34:52;;;;;;;;;39.33;32.33;;;;;;;;5060824;28;45305;-73
2022/05/02 10:37:21;;;;;;;;;36.33;33.33;;;;;;;;5051480;28;45407;-73
2022/05/02 10:39:51;;;;;;;;;35.33;31.33;;;;;;;;5060180;28;46357;-73
2022/05/02 10:42:17;;;;;;;;;38.33;33.33;;;;;;;;5053527;28;45405;-74
2022/05/02 10:44:52;;;;;;;;;29.67;29.67;;;;;;;;5059368;28;45299;-74
2022/05/02 10:47:18;;;;;;;;;39.67;32.33;;;;;;;;5053245;28;45374;-74
2022/05/02 10:50:02;;;;;;;;;38.33;33.33;;;;;;;;5060009;28;45400;-73
2022/05/02 10:52:45;;;;;;;;;38.00;32.33;;;;;;;;5053654;28;45587;-73
2022/05/02 10:55:24;;;;;;;;;42.00;31.33;;;;;;;;5060128;28;45289;-73
2022/05/02 10:57:53;;;;;;;;;31.33;29.33;;;;;;;;5054102;28;45349;-72
2022/05/02 11:00:19;;;;;;;;;30.00;29.33;;;;;;;;5056722;28;47225;-74
2022/05/02 11:03:00;;;;;;;;;29.33;28.67;;;;;;;;5051013;28;45462;-73
2022/05/02 11:05:31;;;;;;;;;36.00;32.33;;;;;;;;5044791;28;45456;-73
2022/05/02 11:08:03;;;;;;;;;32.33;29.00;;;;;;;;5053600;28;45580;-73
2022/05/02 11:10:30;;;;;;;;;40.33;34.00;;;;;;;;5058380;28;45409;-73
2022/05/02 11:13:02;;;;;;;;;34.33;30.67;;;;;;;;5055700;28;45444;-74
2022/05/02 11:15:37;;;;;;;;;43.00;34.33;;;;;;;;5059181;28;45435;-73
2022/05/02 11:18:07;;;;;;;;;30.67;29.67;;;;;;;;5055584;28;45968;-73
2022/05/02 11:20:49;;;;;;;;;30.33;28.67;;;;;;;;5056538;28;47254;-73
2022/05/02 11:23:33;;;;;;;;;33.67;29.00;;;;;;;;5055910;28;46105;-73
2022/05/02 11:26:32;;;;;;;;;31.67;31.00;;;;;;;;5057756;28;45338;-73
2022/05/02 11:29:13;;;;;;;;;22.33;22.33;;;;;;;;5048253;28;46211;-73
2022/05/02 11:31:47;;;;;;;;;33.00;29.67;;;;;;;;5053649;28;45586;-74
2022/05/02 11:34:28;;;;;;;;;29.33;28.00;;;;;;;;5059307;28;45196;-73
2022/05/02 11:36:57;;;;;;;;;29.33;27.00;;;;;;;;5051984;28;45462;-75
2022/05/02 11:39:34;;;;;;;;;28.67;24.00;;;;;;;;5059224;28;45387;-73
2022/05/02 11:42:07;;;;;;;;;33.33;28.33;;;;;;;;5052261;28;45498;-73
2022/05/02 11:44:37;;;;;;;;;29.33;26.00;;;;;;;;5057962;28;45501;-73
2022/05/02 11:47:05;;;;;;;;;24.67;22.00;;;;;;;;5052603;28;45407;-73
2022/05/02 11:49:41;;;;;;;;;31.00;25.67;;;;;;;;5059196;28;45283;-73
2022/05/02 11:52:08;;;;;;;;;29.00;26.67;;;;;;;;5053078;28;45505;-72
2022/05/02 11:54:39;;;;;;;;;32.67;28.67;;;;;;;;5059290;28;45208;-74
2022/05/02 11:57:17;;;;;;;;;25.33;24.00;;;;;;;;5057596;28;45352;-73
2022/05/02 11:59:48;;;;;;;;;28.00;25.00;;;;;;;;5075102;27;46867;-73
2022/05/02 12:02:32;;;;;;;;;28.33;24.33;;;;;;;;5052951;28;46417;-73
2022/05/02 12:05:01;;;;;;;;;29.00;24.00;;;;;;;;5054378;28;45438;-73
2022/05/02 12:07:32;;;;;;;;;28.33;26.67;;;;;;;;5054207;28;45276;-72
2022/05/02 12:10:08;;;;;;;;;25.00;24.67;;;;;;;;5057249;28;45352;-72
2022/05/02 12:12:34;;;;;;;;;27.33;25.67;;;;;;;;5053906;28;46549;-72
2022/05/02 12:15:00;;;;;;;;;27.67;25.00;;;;;;;;5058438;28;45446;-72
2022/05/02 12:17:25;;;;;;;;;20.67;18.33;;;;;;;;5056583;28;45419;-72
2022/05/02 12:19:50;;;;;;;;;25.00;22.00;;;;;;;;5058327;28;45319;-73
2022/05/02 12:22:16;;;;;;;;;26.67;24.00;;;;;;;;5054727;28;46827;-73
2022/05/02 12:24:45;;;;;;;;;27.67;26.33;;;;;;;;5066925;28;45371;-72
2022/05/02 12:27:12;;;;;;;;;26.00;22.00;;;;;;;;5050213;28;45426;-73
2022/05/02 12:29:41;;;;;;;;;24.67;20.00;;;;;;;;5057001;28;47044;-73
2022/05/02 12:32:07;;;;;;;;;20.67;18.67;;;;;;;;5047628;28;48605;-73
2022/05/02 12:34:35;;;;;;;;;25.00;23.67;;;;;;;;5058171;28;45288;-73
2022/05/02 12:37:04;;;;;;;;;23.67;21.00;;;;;;;;5050296;28;45688;-73
2022/05/02 12:39:33;;;;;;;;;22.00;21.33;;;;;;;;5045234;28;45519;-72
2022/05/02 12:42:11;;;;;;;;;22.67;21.00;;;;;;;;5051800;28;45462;-73
2022/05/02 12:44:43;;;;;;;;;20.33;19.67;;;;;;;;5057106;28;45419;-73
2022/05/02 12:47:14;;;;;;;;;21.67;21.67;;;;;;;;5051922;28;45631;-73
2022/05/02 12:49:52;;;;;;;;;23.33;20.33;;;;;;;;5058188;28;45542;-73
2022/05/02 12:52:17;;;;;;;;;22.67;21.33;;;;;;;;5053714;28;45408;-73
2022/05/02 12:54:47;;;;;;;;;24.33;23.67;;;;;;;;5058251;28;45162;-73
2022/05/02 13:02:45;;;;;;;;;20.33;19.67;;;;;;;;5047985;28;45709;-73
2022/05/02 13:05:13;;;;;;;;;25.00;24.00;;;;;;;;5055689;28;45232;-73
2022/05/02 13:07:44;;;;;;;;;22.67;21.67;;;;;;;;5055646;28;45415;-73
2022/05/02 13:10:29;;;;;;;;;25.33;24.33;;;;;;;;5059588;28;45580;-73
2022/05/02 13:13:01;;;;;;;;;26.00;19.00;;;;;;;;5056266;28;45216;-73
2022/05/02 13:15:28;;;;;;;;;25.00;22.33;;;;;;;;5060988;28;45524;-75
2022/05/02 13:17:57;;;;;;;;;17.67;17.67;;;;;;;;5057649;28;45414;-73
2022/05/02 13:20:25;;;;;;;;;25.33;24.33;;;;;;;;5060884;28;45486;-73
2022/05/02 13:23:16;;;;;;;;;24.33;22.67;;;;;;;;5051319;28;46384;-73
2022/05/02 13:25:51;;;;;;;;;17.33;17.33;;;;;;;;5059133;28;45250;-74
2022/05/02 13:28:23;;;;;;;;;22.33;22.33;;;;;;;;5058313;28;45438;-73
2022/05/02 13:30:52;;;;;;;;;24.00;22.00;;;;;;;;5059492;28;45317;-73
2022/05/02 13:33:23;;;;;;;;;22.00;21.33;;;;;;;;5069057;28;49089;-73
2022/05/02 13:35:49;;;;;;;;;27.00;23.67;;;;;;;;5055544;28;45351;-72
2022/05/02 13:38:25;;;;;;;;;27.33;26.00;;;;;;;;5055974;28;45276;-72
2022/05/02 13:41:17;;;;;;;;;30.00;27.00;;;;;;;;5059145;28;45440;-72
2022/05/02 13:43:52;;;;;;;;;27.67;24.33;;;;;;;;5055001;28;48520;-71
2022/05/02 13:46:22;;;;;;;;;22.33;21.00;;;;;;;;5054079;28;45520;-74
2022/05/02 13:48:55;;;;;;;;;25.00;22.00;;;;;;;;5055788;28;45331;-72
2022/05/02 13:51:29;;;;;;;;;25.33;22.00;;;;;;;;5055275;28;45606;-72
2022/05/02 13:54:00;;;;;;;;;22.33;20.67;;;;;;;;5059571;28;47086;-72
2022/05/02 13:56:42;;;;;;;;;20.00;19.00;;;;;;;;5054245;28;45352;-72
2022/05/02 13:59:08;;;;;;;;;24.67;21.00;;;;;;;;5054532;28;45388;-72
2022/05/02 14:01:42;;;;;;;;;27.67;21.00;;;;;;;;5053809;28;45285;-72
2022/05/02 14:04:22;;;;;;;;;22.00;21.00;;;;;;;;5056404;28;46392;-73
2022/05/02 14:09:44;;;;;;;;;30.67;28.33;;;;;;;;5057708;28;45329;-72
2022/05/02 14:12:29;;;;;;;;;30.00;21.33;;;;;;;;5054715;28;45485;-72
2022/05/02 14:15:01;;;;;;;;;21.00;20.00;;;;;;;;5058526;28;45396;-72
2022/05/02 14:17:55;;;;;;;;;24.00;21.00;;;;;;;;5057182;28;45410;-72
2022/05/02 14:20:25;;;;;;;;;25.00;23.00;;;;;;;;5048571;28;45410;-71
2022/05/02 14:22:53;;;;;;;;;18.33;18.33;;;;;;;;5049594;28;45334;-71
2022/05/02 14:25:44;;;;;;;;;20.33;19.00;;;;;;;;5060057;28;46277;-72
2022/05/02 14:28:14;;;;;;;;;23.67;18.67;;;;;;;;5048576;28;45539;-72
2022/05/02 14:30:43;;;;;;;;;21.00;20.67;;;;;;;;5059072;28;45327;-73
2022/05/02 14:33:11;;;;;;;;;22.00;18.00;;;;;;;;5054997;28;45513;-72
2022/05/02 14:35:38;;;;;;;;;20.67;20.67;;;;;;;;5057743;28;46142;-72
2022/05/02 14:38:04;;;;;;;;;21.33;19.67;;;;;;;;5049043;28;45372;-72
2022/05/02 14:40:31;;;;;;;;;18.33;17.67;;;;;;;;5054821;28;45342;-72
2022/05/02 14:42:58;;;;;;;;;26.67;23.67;;;;;;;;5054511;28;45367;-72
2022/05/02 14:45:25;;;;;;;;;21.67;18.00;;;;;;;;5058914;28;45374;-72
2022/05/02 14:47:50;;;;;;;;;21.67;21.67;;;;;;;;5053516;28;45236;-72
2022/05/02 14:50:18;;;;;;;;;18.00;18.00;;;;;;;;5059492;28;45316;-71
2022/05/02 14:52:45;;;;;;;;;14.33;10.67;;;;;;;;5050589;28;46991;-73
2022/05/02 14:55:10;;;;;;;;;22.67;19.33;;;;;;;;5088914;27;47125;-72
2022/05/02 14:57:40;;;;;;;;;17.67;16.33;;;;;;;;5051826;28;45688;-72
2022/05/02 15:00:11;;;;;;;;;20.33;20.33;;;;;;;;5056727;28;45383;-74
2022/05/02 15:02:37;;;;;;;;;16.33;16.00;;;;;;;;5050906;28;45619;-74
2022/05/02 15:05:03;;;;;;;;;18.67;17.67;;;;;;;;5054515;28;47593;-74
2022/05/02 15:07:38;;;;;;;;;16.67;15.67;;;;;;;;5055613;28;45452;-77